sensor_id;sensor_type;location;lat;lon;timestamp;pressure;altitude;pressure_sealevel;temperature;humidity
6423;BME280;3244;42.708;23.288;2023-05-02T00:01:13;95362.31;;;13.95;66.00
6423;BME280;3244;42.708;23.288;2023-05-02T00:03:40;95352.81;;;13.99;65.97
6423;BME280;3244;42.708;23.288;2023-05-02T00:06:07;95356.72;;;14.07;65.58
6423;BME280;3244;42.708;23.288;2023-05-02T00:08:35;95354.34;;;14.03;65.90
6423;BME280;3244;42.708;23.288;2023-05-02T00:11:02;95357.03;;;14.00;65.36
6423;BME280;3244;42.708;23.288;2023-05-02T00:13:31;95345.19;;;13.97;65.98
6423;BME280;3244;42.708;23.288;2023-05-02T00:15:57;95355.16;;;14.03;65.62
6423;BME280;3244;42.708;23.288;2023-05-02T00:18:24;95356.00;;;14.04;65.47
6423;BME280;3244;42.708;23.288;2023-05-02T00:20:51;95349.16;;;14.04;65.70
6423;BME280;3244;42.708;23.288;2023-05-02T00:23:18;95352.53;;;14.05;65.70
6423;BME280;3244;42.708;23.288;2023-05-02T00:25:44;95358.81;;;13.98;65.79
6423;BME280;3244;42.708;23.288;2023-05-02T00:28:11;95358.63;;;14.02;65.75
6423;BME280;3244;42.708;23.288;2023-05-02T00:30:42;95365.50;;;14.00;66.47
6423;BME280;3244;42.708;23.288;2023-05-02T00:33:09;95360.69;;;14.13;65.92
6423;BME280;3244;42.708;23.288;2023-05-02T00:35:37;95353.44;;;14.04;65.29
6423;BME280;3244;42.708;23.288;2023-05-02T00:38:04;95374.72;;;14.04;65.65
6423;BME280;3244;42.708;23.288;2023-05-02T00:40:30;95371.38;;;14.02;65.82
6423;BME280;3244;42.708;23.288;2023-05-02T00:42:57;95378.03;;;14.06;65.84
6423;BME280;3244;42.708;23.288;2023-05-02T00:45:24;95387.09;;;14.13;65.77
6423;BME280;3244;42.708;23.288;2023-05-02T00:47:52;95383.91;;;14.08;65.85
6423;BME280;3244;42.708;23.288;2023-05-02T00:50:19;95392.72;;;14.01;66.76
6423;BME280;3244;42.708;23.288;2023-05-02T00:52:46;95391.19;;;13.97;66.48
6423;BME280;3244;42.708;23.288;2023-05-02T00:55:13;95391.78;;;14.04;66.06
6423;BME280;3244;42.708;23.288;2023-05-02T00:57:40;95388.13;;;14.09;66.04
6423;BME280;3244;42.708;23.288;2023-05-02T01:00:08;95384.28;;;13.99;66.49
6423;BME280;3244;42.708;23.288;2023-05-02T01:02:42;95389.41;;;13.99;67.01
6423;BME280;3244;42.708;23.288;2023-05-02T01:05:19;95383.78;;;13.91;67.34
6423;BME280;3244;42.708;23.288;2023-05-02T01:07:56;95385.00;;;14.03;66.74
6423;BME280;3244;42.708;23.288;2023-05-02T01:10:31;95390.28;;;13.98;67.00
6423;BME280;3244;42.708;23.288;2023-05-02T01:13:06;95385.38;;;13.93;67.11
6423;BME280;3244;42.708;23.288;2023-05-02T01:15:36;95391.97;;;13.99;67.40
6423;BME280;3244;42.708;23.288;2023-05-02T01:18:05;95376.09;;;13.91;67.39
6423;BME280;3244;42.708;23.288;2023-05-02T01:20:38;95373.69;;;13.88;67.59
6423;BME280;3244;42.708;23.288;2023-05-02T01:23:11;95367.94;;;13.83;68.48
6423;BME280;3244;42.708;23.288;2023-05-02T01:25:51;95373.56;;;13.91;67.64
6423;BME280;3244;42.708;23.288;2023-05-02T01:28:30;95365.19;;;13.87;68.12
6423;BME280;3244;42.708;23.288;2023-05-02T01:31:05;95365.25;;;13.86;68.45
6423;BME280;3244;42.708;23.288;2023-05-02T01:33:34;95363.91;;;13.77;68.95
6423;BME280;3244;42.708;23.288;2023-05-02T01:36:02;95360.00;;;13.69;69.27
6423;BME280;3244;42.708;23.288;2023-05-02T01:38:29;95363.50;;;13.66;69.11
6423;BME280;3244;42.708;23.288;2023-05-02T01:40:59;95369.41;;;13.68;68.98
6423;BME280;3244;42.708;23.288;2023-05-02T01:43:31;95370.63;;;13.59;69.92
6423;BME280;3244;42.708;23.288;2023-05-02T01:46:01;95377.69;;;13.53;69.93
6423;BME280;3244;42.708;23.288;2023-05-02T01:48:30;95376.06;;;13.50;69.84
6423;BME280;3244;42.708;23.288;2023-05-02T01:50:58;95382.00;;;13.51;70.04
6423;BME280;3244;42.708;23.288;2023-05-02T01:53:25;95381.72;;;13.58;69.70
6423;BME280;3244;42.708;23.288;2023-05-02T01:55:54;95382.72;;;13.54;70.00
6423;BME280;3244;42.708;23.288;2023-05-02T01:58:22;95385.47;;;13.50;70.37
6423;BME280;3244;42.708;23.288;2023-05-02T02:00:52;95377.75;;;13.51;70.02
6423;BME280;3244;42.708;23.288;2023-05-02T02:03:20;95374.53;;;13.46;70.43
6423;BME280;3244;42.708;23.288;2023-05-02T02:05:48;95376.69;;;13.35;70.71
6423;BME280;3244;42.708;23.288;2023-05-02T02:08:17;95370.16;;;13.50;70.61
6423;BME280;3244;42.708;23.288;2023-05-02T02:10:48;95375.19;;;13.51;70.70
6423;BME280;3244;42.708;23.288;2023-05-02T02:13:18;95373.59;;;13.49;70.63
6423;BME280;3244;42.708;23.288;2023-05-02T02:15:49;95373.88;;;13.41;71.06
6423;BME280;3244;42.708;23.288;2023-05-02T02:18:20;95372.28;;;13.39;71.02
6423;BME280;3244;42.708;23.288;2023-05-02T02:20:52;95366.00;;;13.25;71.26
6423;BME280;3244;42.708;23.288;2023-05-02T02:23:21;95367.22;;;13.37;71.30
6423;BME280;3244;42.708;23.288;2023-05-02T02:25:49;95372.94;;;13.22;71.61
6423;BME280;3244;42.708;23.288;2023-05-02T02:28:17;95363.28;;;13.30;71.37
6423;BME280;3244;42.708;23.288;2023-05-02T02:30:44;95371.81;;;13.29;71.52
6423;BME280;3244;42.708;23.288;2023-05-02T02:33:11;95373.50;;;13.30;71.63
6423;BME280;3244;42.708;23.288;2023-05-02T02:35:41;95365.06;;;13.28;71.24
6423;BME280;3244;42.708;23.288;2023-05-02T02:38:16;95372.00;;;13.24;71.67
6423;BME280;3244;42.708;23.288;2023-05-02T02:40:52;95376.81;;;13.32;71.32
6423;BME280;3244;42.708;23.288;2023-05-02T02:43:30;95376.16;;;13.27;71.41
6423;BME280;3244;42.708;23.288;2023-05-02T02:46:05;95377.00;;;13.27;71.37
6423;BME280;3244;42.708;23.288;2023-05-02T02:48:36;95376.69;;;13.35;71.16
6423;BME280;3244;42.708;23.288;2023-05-02T02:51:09;95376.56;;;13.38;70.69
6423;BME280;3244;42.708;23.288;2023-05-02T02:53:46;95376.81;;;13.32;71.48
6423;BME280;3244;42.708;23.288;2023-05-02T02:56:23;95384.53;;;13.31;71.05
6423;BME280;3244;42.708;23.288;2023-05-02T02:58:55;95394.97;;;13.24;70.86
6423;BME280;3244;42.708;23.288;2023-05-02T03:01:26;95390.47;;;13.31;71.34
6423;BME280;3244;42.708;23.288;2023-05-02T03:03:54;95391.19;;;13.35;70.93
6423;BME280;3244;42.708;23.288;2023-05-02T03:06:22;95409.09;;;13.33;70.69
6423;BME280;3244;42.708;23.288;2023-05-02T03:08:51;95400.84;;;13.26;71.03
6423;BME280;3244;42.708;23.288;2023-05-02T03:11:17;95401.84;;;13.22;71.28
6423;BME280;3244;42.708;23.288;2023-05-02T03:13:44;95404.47;;;13.21;70.95
6423;BME280;3244;42.708;23.288;2023-05-02T03:16:28;95412.16;;;13.19;71.53
6423;BME280;3244;42.708;23.288;2023-05-02T03:18:56;95405.53;;;13.15;71.33
6423;BME280;3244;42.708;23.288;2023-05-02T03:21:23;95409.88;;;13.12;71.64
6423;BME280;3244;42.708;23.288;2023-05-02T03:23:51;95408.94;;;13.14;71.61
6423;BME280;3244;42.708;23.288;2023-05-02T03:26:18;95408.09;;;13.14;71.38
6423;BME280;3244;42.708;23.288;2023-05-02T03:28:45;95417.47;;;13.13;71.46
6423;BME280;3244;42.708;23.288;2023-05-02T03:31:12;95407.25;;;13.13;71.71
6423;BME280;3244;42.708;23.288;2023-05-02T03:33:39;95413.06;;;13.18;70.91
6423;BME280;3244;42.708;23.288;2023-05-02T03:36:06;95421.56;;;13.19;71.08
6423;BME280;3244;42.708;23.288;2023-05-02T03:38:33;95410.28;;;13.24;70.70
6423;BME280;3244;42.708;23.288;2023-05-02T03:41:01;95413.44;;;13.31;70.48
6423;BME280;3244;42.708;23.288;2023-05-02T03:43:28;95424.16;;;13.39;70.25
6423;BME280;3244;42.708;23.288;2023-05-02T03:45:55;95418.00;;;13.45;69.88
6423;BME280;3244;42.708;23.288;2023-05-02T03:48:21;95413.59;;;13.48;69.52
6423;BME280;3244;42.708;23.288;2023-05-02T03:50:49;95420.59;;;13.43;69.71
6423;BME280;3244;42.708;23.288;2023-05-02T03:53:16;95425.94;;;13.37;70.01
6423;BME280;3244;42.708;23.288;2023-05-02T03:55:43;95425.94;;;13.37;70.32
6423;BME280;3244;42.708;23.288;2023-05-02T03:58:11;95424.94;;;13.41;70.65
6423;BME280;3244;42.708;23.288;2023-05-02T04:00:38;95427.38;;;13.44;70.38
6423;BME280;3244;42.708;23.288;2023-05-02T04:03:05;95428.81;;;13.51;70.26
6423;BME280;3244;42.708;23.288;2023-05-02T04:05:32;95430.34;;;13.55;70.26
6423;BME280;3244;42.708;23.288;2023-05-02T04:07:59;95431.53;;;13.69;69.50
6423;BME280;3244;42.708;23.288;2023-05-02T04:10:26;95436.16;;;14.21;67.68
6423;BME280;3244;42.708;23.288;2023-05-02T04:12:53;95433.84;;;14.76;65.54
6423;BME280;3244;42.708;23.288;2023-05-02T04:15:21;95425.88;;;15.39;63.38
6423;BME280;3244;42.708;23.288;2023-05-02T04:17:47;95426.69;;;15.94;61.38
6423;BME280;3244;42.708;23.288;2023-05-02T04:20:14;95432.19;;;16.04;60.36
6423;BME280;3244;42.708;23.288;2023-05-02T04:22:41;95426.25;;;16.03;59.99
6423;BME280;3244;42.708;23.288;2023-05-02T04:25:08;95405.78;;;16.19;59.27
6423;BME280;3244;42.708;23.288;2023-05-02T04:27:34;95425.72;;;16.31;58.87
6423;BME280;3244;42.708;23.288;2023-05-02T04:30:03;95421.88;;;16.05;59.48
6423;BME280;3244;42.708;23.288;2023-05-02T04:32:31;95431.72;;;16.13;59.29
6423;BME280;3244;42.708;23.288;2023-05-02T04:34:58;95427.81;;;16.23;58.63
6423;BME280;3244;42.708;23.288;2023-05-02T04:37:25;95432.78;;;16.26;58.24
6423;BME280;3244;42.708;23.288;2023-05-02T04:39:51;95423.19;;;16.64;57.30
6423;BME280;3244;42.708;23.288;2023-05-02T04:42:18;95428.72;;;17.05;55.53
6423;BME280;3244;42.708;23.288;2023-05-02T04:44:45;95426.09;;;17.07;55.67
6423;BME280;3244;42.708;23.288;2023-05-02T04:47:11;95437.16;;;16.91;55.82
6423;BME280;3244;42.708;23.288;2023-05-02T04:49:39;95430.72;;;17.00;55.41
6423;BME280;3244;42.708;23.288;2023-05-02T04:52:07;95433.97;;;16.71;56.13
6423;BME280;3244;42.708;23.288;2023-05-02T04:54:35;95425.44;;;16.36;56.72
6423;BME280;3244;42.708;23.288;2023-05-02T04:57:01;95438.75;;;15.92;57.82
6423;BME280;3244;42.708;23.288;2023-05-02T04:59:31;95430.22;;;15.74;58.58
6423;BME280;3244;42.708;23.288;2023-05-02T05:01:58;95430.00;;;15.79;58.67
6423;BME280;3244;42.708;23.288;2023-05-02T05:04:25;95428.19;;;15.98;58.00
6423;BME280;3244;42.708;23.288;2023-05-02T05:06:53;95432.09;;;15.88;58.67
6423;BME280;3244;42.708;23.288;2023-05-02T05:09:20;95434.97;;;15.99;58.41
6423;BME280;3244;42.708;23.288;2023-05-02T05:11:46;95432.72;;;15.93;57.79
6423;BME280;3244;42.708;23.288;2023-05-02T05:14:13;95425.00;;;15.58;58.39
6423;BME280;3244;42.708;23.288;2023-05-02T05:16:39;95440.38;;;15.58;58.48
6423;BME280;3244;42.708;23.288;2023-05-02T05:19:06;95430.94;;;15.59;58.94
6423;BME280;3244;42.708;23.288;2023-05-02T05:21:33;95430.06;;;15.77;58.12
6423;BME280;3244;42.708;23.288;2023-05-02T05:24:01;95430.47;;;16.04;57.14
6423;BME280;3244;42.708;23.288;2023-05-02T05:26:27;95433.72;;;16.08;56.26
6423;BME280;3244;42.708;23.288;2023-05-02T05:28:54;95430.59;;;16.18;56.23
6423;BME280;3244;42.708;23.288;2023-05-02T05:31:21;95438.03;;;16.57;54.70
6423;BME280;3244;42.708;23.288;2023-05-02T05:33:48;95437.59;;;16.66;53.85
6423;BME280;3244;42.708;23.288;2023-05-02T05:36:15;95448.53;;;16.70;53.65
6423;BME280;3244;42.708;23.288;2023-05-02T05:38:42;95432.06;;;17.23;52.14
6423;BME280;3244;42.708;23.288;2023-05-02T05:41:10;95444.81;;;17.72;50.47
6423;BME280;3244;42.708;23.288;2023-05-02T05:43:37;95431.66;;;19.09;47.54
6423;BME280;3244;42.708;23.288;2023-05-02T05:46:03;95434.63;;;20.77;42.95
6423;BME280;3244;42.708;23.288;2023-05-02T05:48:30;95447.09;;;21.21;41.77
6423;BME280;3244;42.708;23.288;2023-05-02T05:50:57;95444.41;;;21.10;41.46
6423;BME280;3244;42.708;23.288;2023-05-02T05:53:23;95434.22;;;21.45;41.12
6423;BME280;3244;42.708;23.288;2023-05-02T05:55:50;95451.81;;;21.76;39.85
6423;BME280;3244;42.708;23.288;2023-05-02T05:58:18;95436.78;;;21.21;41.04
6423;BME280;3244;42.708;23.288;2023-05-02T06:00:45;95443.13;;;22.36;38.54
6423;BME280;3244;42.708;23.288;2023-05-02T06:03:11;95441.53;;;22.11;38.99
6423;BME280;3244;42.708;23.288;2023-05-02T06:05:38;95443.31;;;22.57;37.72
6423;BME280;3244;42.708;23.288;2023-05-02T06:08:05;95456.34;;;22.09;38.35
6423;BME280;3244;42.708;23.288;2023-05-02T06:10:31;95461.00;;;21.44;39.89
6423;BME280;3244;42.708;23.288;2023-05-02T06:12:58;95452.22;;;22.42;38.00
6423;BME280;3244;42.708;23.288;2023-05-02T06:15:26;95447.13;;;22.05;38.70
6423;BME280;3244;42.708;23.288;2023-05-02T06:17:53;95433.34;;;23.64;36.25
6423;BME280;3244;42.708;23.288;2023-05-02T06:20:19;95436.75;;;25.12;33.55
6423;BME280;3244;42.708;23.288;2023-05-02T06:22:46;95434.47;;;24.46;33.88
6423;BME280;3244;42.708;23.288;2023-05-02T06:25:12;95448.09;;;23.07;35.85
6423;BME280;3244;42.708;23.288;2023-05-02T06:27:39;95436.69;;;22.42;37.41
6423;BME280;3244;42.708;23.288;2023-05-02T06:30:07;95415.44;;;22.71;36.70
6423;BME280;3244;42.708;23.288;2023-05-02T06:32:35;95444.38;;;22.19;37.91
6423;BME280;3244;42.708;23.288;2023-05-02T06:35:02;95444.28;;;22.67;36.77
6423;BME280;3244;42.708;23.288;2023-05-02T06:37:32;95440.81;;;23.13;36.38
6423;BME280;3244;42.708;23.288;2023-05-02T06:39:59;95446.91;;;23.34;36.00
6423;BME280;3244;42.708;23.288;2023-05-02T06:42:26;95425.66;;;23.73;35.26
6423;BME280;3244;42.708;23.288;2023-05-02T06:44:52;95427.63;;;24.24;34.59
6423;BME280;3244;42.708;23.288;2023-05-02T06:47:19;95422.88;;;26.49;30.70
6423;BME280;3244;42.708;23.288;2023-05-02T06:49:47;95417.91;;;27.49;28.92
6423;BME280;3244;42.708;23.288;2023-05-02T06:52:14;95420.59;;;28.02;27.97
6423;BME280;3244;42.708;23.288;2023-05-02T06:54:41;95430.97;;;27.22;28.33
6423;BME280;3244;42.708;23.288;2023-05-02T06:57:07;95427.72;;;27.10;28.52
6423;BME280;3244;42.708;23.288;2023-05-02T06:59:35;95421.88;;;27.81;27.64
6423;BME280;3244;42.708;23.288;2023-05-02T07:02:02;95418.78;;;27.40;27.85
6423;BME280;3244;42.708;23.288;2023-05-02T07:04:28;95431.16;;;27.01;28.45
6423;BME280;3244;42.708;23.288;2023-05-02T07:06:57;95424.94;;;25.88;30.07
6423;BME280;3244;42.708;23.288;2023-05-02T07:09:23;95421.53;;;26.35;29.39
6423;BME280;3244;42.708;23.288;2023-05-02T07:11:50;95413.19;;;27.35;28.27
6423;BME280;3244;42.708;23.288;2023-05-02T07:14:16;95416.34;;;29.06;25.57
6423;BME280;3244;42.708;23.288;2023-05-02T07:16:43;95423.13;;;30.50;24.53
6423;BME280;3244;42.708;23.288;2023-05-02T07:19:10;95425.84;;;29.84;24.47
6423;BME280;3244;42.708;23.288;2023-05-02T07:21:36;95434.53;;;28.82;25.36
6423;BME280;3244;42.708;23.288;2023-05-02T07:24:05;95427.19;;;28.42;25.93
6423;BME280;3244;42.708;23.288;2023-05-02T07:26:31;95430.69;;;28.76;25.07
6423;BME280;3244;42.708;23.288;2023-05-02T07:28:58;95426.91;;;28.27;25.61
6423;BME280;3244;42.708;23.288;2023-05-02T07:31:25;95425.13;;;30.32;24.39
6423;BME280;3244;42.708;23.288;2023-05-02T07:33:51;95420.88;;;32.05;22.29
6423;BME280;3244;42.708;23.288;2023-05-02T07:36:18;95412.19;;;34.12;20.11
6423;BME280;3244;42.708;23.288;2023-05-02T07:38:45;95415.38;;;34.99;18.90
6423;BME280;3244;42.708;23.288;2023-05-02T07:41:13;95417.84;;;34.09;19.93
6423;BME280;3244;42.708;23.288;2023-05-02T07:43:40;95423.91;;;33.88;19.71
6423;BME280;3244;42.708;23.288;2023-05-02T07:46:07;95435.38;;;31.70;21.36
6423;BME280;3244;42.708;23.288;2023-05-02T07:48:33;95429.41;;;29.66;23.39
6423;BME280;3244;42.708;23.288;2023-05-02T07:51:06;95425.72;;;28.83;24.24
6423;BME280;3244;42.708;23.288;2023-05-02T07:53:33;95435.69;;;28.08;25.23
6423;BME280;3244;42.708;23.288;2023-05-02T07:56:02;95422.94;;;27.33;26.23
6423;BME280;3244;42.708;23.288;2023-05-02T07:58:30;95425.72;;;27.49;26.03
6423;BME280;3244;42.708;23.288;2023-05-02T08:00:57;95417.63;;;28.15;25.62
6423;BME280;3244;42.708;23.288;2023-05-02T08:03:23;95408.72;;;30.87;22.63
6423;BME280;3244;42.708;23.288;2023-05-02T08:05:51;95414.28;;;31.86;20.60
6423;BME280;3244;42.708;23.288;2023-05-02T08:08:17;95423.69;;;31.72;21.49
6423;BME280;3244;42.708;23.288;2023-05-02T08:10:44;95412.59;;;29.85;22.64
6423;BME280;3244;42.708;23.288;2023-05-02T08:13:11;95419.72;;;29.59;23.17
6423;BME280;3244;42.708;23.288;2023-05-02T08:15:39;95417.06;;;30.01;23.43
6423;BME280;3244;42.708;23.288;2023-05-02T08:18:05;95419.22;;;30.54;22.56
6423;BME280;3244;42.708;23.288;2023-05-02T08:20:32;95415.31;;;30.58;22.08
6423;BME280;3244;42.708;23.288;2023-05-02T08:22:59;95420.09;;;29.38;23.33
6423;BME280;3244;42.708;23.288;2023-05-02T08:25:25;95427.91;;;30.30;23.11
6423;BME280;3244;42.708;23.288;2023-05-02T08:27:52;95418.41;;;30.70;22.28
6423;BME280;3244;42.708;23.288;2023-05-02T08:30:19;95421.09;;;32.18;21.20
6423;BME280;3244;42.708;23.288;2023-05-02T08:32:47;95418.38;;;30.86;21.65
6423;BME280;3244;42.708;23.288;2023-05-02T08:35:13;95409.69;;;30.21;22.29
6423;BME280;3244;42.708;23.288;2023-05-02T08:37:40;95411.75;;;29.85;23.73
6423;BME280;3244;42.708;23.288;2023-05-02T08:40:10;95419.69;;;30.09;22.21
6423;BME280;3244;42.708;23.288;2023-05-02T08:42:40;95438.78;;;27.76;24.90
6423;BME280;3244;42.708;23.288;2023-05-02T08:45:08;95427.66;;;27.47;25.63
6423;BME280;3244;42.708;23.288;2023-05-02T08:47:37;95421.56;;;27.84;24.66
6423;BME280;3244;42.708;23.288;2023-05-02T08:50:08;95415.28;;;28.48;24.37
6423;BME280;3244;42.708;23.288;2023-05-02T08:52:35;95418.03;;;28.64;23.93
6423;BME280;3244;42.708;23.288;2023-05-02T08:55:02;95425.13;;;27.65;25.17
6423;BME280;3244;42.708;23.288;2023-05-02T08:57:29;95411.25;;;27.64;25.50
6423;BME280;3244;42.708;23.288;2023-05-02T08:59:56;95414.59;;;28.81;24.18
6423;BME280;3244;42.708;23.288;2023-05-02T09:02:38;95407.06;;;30.53;22.69
6423;BME280;3244;42.708;23.288;2023-05-02T09:05:10;95409.84;;;30.03;22.23
6423;BME280;3244;42.708;23.288;2023-05-02T09:07:45;95408.34;;;26.08;26.55
6423;BME280;3244;42.708;23.288;2023-05-02T09:10:12;95415.72;;;23.79;30.05
6423;BME280;3244;42.708;23.288;2023-05-02T09:12:38;95436.50;;;21.97;33.09
6423;BME280;3244;42.708;23.288;2023-05-02T09:15:10;95421.53;;;21.29;34.72
6423;BME280;3244;42.708;23.288;2023-05-02T09:17:41;95404.81;;;21.09;35.17
6423;BME280;3244;42.708;23.288;2023-05-02T09:20:11;95419.34;;;20.74;36.76
6423;BME280;3244;42.708;23.288;2023-05-02T09:22:40;95414.84;;;20.25;36.80
6423;BME280;3244;42.708;23.288;2023-05-02T09:25:13;95403.84;;;19.96;38.62
6423;BME280;3244;42.708;23.288;2023-05-02T09:27:50;95408.56;;;19.89;39.12
6423;BME280;3244;42.708;23.288;2023-05-02T09:30:19;95415.19;;;19.93;37.67
6423;BME280;3244;42.708;23.288;2023-05-02T09:32:47;95406.25;;;19.85;38.20
6423;BME280;3244;42.708;23.288;2023-05-02T09:35:17;95418.91;;;20.02;38.01
6423;BME280;3244;42.708;23.288;2023-05-02T09:37:52;95395.03;;;19.86;37.45
6423;BME280;3244;42.708;23.288;2023-05-02T09:40:19;95405.31;;;20.13;37.81
6423;BME280;3244;42.708;23.288;2023-05-02T09:42:45;95403.44;;;20.15;38.31
6423;BME280;3244;42.708;23.288;2023-05-02T09:45:19;95398.25;;;20.42;37.53
6423;BME280;3244;42.708;23.288;2023-05-02T09:47:47;95399.69;;;20.71;38.55
6423;BME280;3244;42.708;23.288;2023-05-02T09:50:33;95392.97;;;20.81;36.63
6423;BME280;3244;42.708;23.288;2023-05-02T09:53:01;95393.44;;;21.12;36.70
6423;BME280;3244;42.708;23.288;2023-05-02T09:55:28;95396.25;;;20.96;35.24
6423;BME280;3244;42.708;23.288;2023-05-02T09:57:55;95386.75;;;20.96;36.16
6423;BME280;3244;42.708;23.288;2023-05-02T10:00:22;95385.47;;;21.15;35.21
6423;BME280;3244;42.708;23.288;2023-05-02T10:02:49;95392.47;;;20.76;35.90
6423;BME280;3244;42.708;23.288;2023-05-02T10:05:16;95396.59;;;20.41;36.75
6423;BME280;3244;42.708;23.288;2023-05-02T10:07:46;95385.09;;;20.32;37.29
6423;BME280;3244;42.708;23.288;2023-05-02T10:10:16;95382.59;;;20.30;36.97
6423;BME280;3244;42.708;23.288;2023-05-02T10:12:43;95379.94;;;20.32;38.73
6423;BME280;3244;42.708;23.288;2023-05-02T10:15:12;95372.91;;;20.21;36.89
6423;BME280;3244;42.708;23.288;2023-05-02T10:17:45;95381.59;;;20.20;37.44
6423;BME280;3244;42.708;23.288;2023-05-02T10:20:18;95380.84;;;20.18;36.41
6423;BME280;3244;42.708;23.288;2023-05-02T10:22:49;95390.22;;;19.94;36.70
6423;BME280;3244;42.708;23.288;2023-05-02T10:25:17;95372.25;;;20.05;38.45
6423;BME280;3244;42.708;23.288;2023-05-02T10:27:44;95370.72;;;20.15;36.58
6423;BME280;3244;42.708;23.288;2023-05-02T10:30:13;95361.66;;;20.35;36.47
6423;BME280;3244;42.708;23.288;2023-05-02T10:32:40;95369.84;;;20.67;35.42
6423;BME280;3244;42.708;23.288;2023-05-02T10:35:09;95360.00;;;20.85;35.21
6423;BME280;3244;42.708;23.288;2023-05-02T10:37:37;95358.13;;;20.99;35.29
6423;BME280;3244;42.708;23.288;2023-05-02T10:40:09;95353.22;;;21.20;33.79
6423;BME280;3244;42.708;23.288;2023-05-02T10:42:37;95355.75;;;21.33;35.16
6423;BME280;3244;42.708;23.288;2023-05-02T10:45:09;95353.03;;;21.47;35.67
6423;BME280;3244;42.708;23.288;2023-05-02T10:47:37;95353.22;;;21.08;34.02
6423;BME280;3244;42.708;23.288;2023-05-02T10:50:04;95352.03;;;21.00;34.24
6423;BME280;3244;42.708;23.288;2023-05-02T10:52:34;95342.47;;;21.14;34.03
6423;BME280;3244;42.708;23.288;2023-05-02T10:55:17;95340.84;;;21.36;34.41
6423;BME280;3244;42.708;23.288;2023-05-02T10:58:21;95351.75;;;21.16;33.86
6423;BME280;3244;42.708;23.288;2023-05-02T11:00:48;95334.81;;;20.76;35.34
6423;BME280;3244;42.708;23.288;2023-05-02T11:03:53;95341.09;;;20.84;34.73
6423;BME280;3244;42.708;23.288;2023-05-02T11:06:19;95335.44;;;21.16;35.24
6423;BME280;3244;42.708;23.288;2023-05-02T11:08:46;95338.34;;;21.24;33.91
6423;BME280;3244;42.708;23.288;2023-05-02T11:11:44;95335.06;;;21.33;34.34
6423;BME280;3244;42.708;23.288;2023-05-02T11:14:40;95334.53;;;21.41;33.37
6423;BME280;3244;42.708;23.288;2023-05-02T11:17:06;95332.06;;;21.39;33.98
6423;BME280;3244;42.708;23.288;2023-05-02T11:22:33;95329.66;;;21.25;33.48
6423;BME280;3244;42.708;23.288;2023-05-02T11:25:00;95317.47;;;21.38;33.62
6423;BME280;3244;42.708;23.288;2023-05-02T11:27:37;95312.84;;;21.30;33.88
6423;BME280;3244;42.708;23.288;2023-05-02T11:30:06;95315.91;;;21.48;33.53
6423;BME280;3244;42.708;23.288;2023-05-02T11:33:10;95334.00;;;21.12;33.77
6423;BME280;3244;42.708;23.288;2023-05-02T11:35:40;95311.22;;;21.17;34.21
6423;BME280;3244;42.708;23.288;2023-05-02T11:38:09;95314.53;;;21.19;33.37
6423;BME280;3244;42.708;23.288;2023-05-02T11:40:36;95308.34;;;21.45;33.47
6423;BME280;3244;42.708;23.288;2023-05-02T11:43:13;95317.97;;;21.43;33.13
6423;BME280;3244;42.708;23.288;2023-05-02T11:45:40;95311.59;;;21.36;33.25
6423;BME280;3244;42.708;23.288;2023-05-02T11:48:09;95311.09;;;21.31;33.17
6423;BME280;3244;42.708;23.288;2023-05-02T11:50:40;95300.53;;;21.34;33.85
6423;BME280;3244;42.708;23.288;2023-05-02T11:53:09;95303.22;;;21.56;33.42
6423;BME280;3244;42.708;23.288;2023-05-02T11:55:36;95305.34;;;21.51;33.04
6423;BME280;3244;42.708;23.288;2023-05-02T11:58:03;95283.13;;;21.60;33.33
6423;BME280;3244;42.708;23.288;2023-05-02T12:00:32;95292.16;;;21.54;32.87
6423;BME280;3244;42.708;23.288;2023-05-02T12:02:58;95278.72;;;21.73;33.30
6423;BME280;3244;42.708;23.288;2023-05-02T12:05:28;95281.31;;;21.84;33.13
6423;BME280;3244;42.708;23.288;2023-05-02T12:07:55;95282.75;;;21.53;33.35
6423;BME280;3244;42.708;23.288;2023-05-02T12:10:22;95275.41;;;21.36;34.18
6423;BME280;3244;42.708;23.288;2023-05-02T12:12:49;95271.00;;;21.49;34.25
6423;BME280;3244;42.708;23.288;2023-05-02T12:15:16;95269.56;;;21.45;33.71
6423;BME280;3244;42.708;23.288;2023-05-02T12:17:46;95253.63;;;21.51;33.69
6423;BME280;3244;42.708;23.288;2023-05-02T12:20:16;95253.84;;;21.48;34.01
6423;BME280;3244;42.708;23.288;2023-05-02T12:22:43;95263.19;;;21.38;33.69
6423;BME280;3244;42.708;23.288;2023-05-02T12:25:11;95259.66;;;21.39;33.88
6423;BME280;3244;42.708;23.288;2023-05-02T12:27:38;95258.91;;;21.26;33.21
6423;BME280;3244;42.708;23.288;2023-05-02T12:30:05;95257.06;;;21.15;34.17
6423;BME280;3244;42.708;23.288;2023-05-02T12:32:34;95258.66;;;21.05;33.53
6423;BME280;3244;42.708;23.288;2023-05-02T12:35:02;95245.97;;;21.02;34.00
6423;BME280;3244;42.708;23.288;2023-05-02T12:37:29;95250.56;;;20.86;33.61
6423;BME280;3244;42.708;23.288;2023-05-02T12:39:56;95245.25;;;20.76;33.90
6423;BME280;3244;42.708;23.288;2023-05-02T12:42:24;95231.16;;;20.80;33.99
6423;BME280;3244;42.708;23.288;2023-05-02T12:44:52;95231.94;;;20.93;33.83
6423;BME280;3244;42.708;23.288;2023-05-02T12:47:19;95223.59;;;21.14;33.16
6423;BME280;3244;42.708;23.288;2023-05-02T12:49:50;95214.28;;;21.24;32.93
6423;BME280;3244;42.708;23.288;2023-05-02T12:52:19;95241.72;;;21.49;32.41
6423;BME280;3244;42.708;23.288;2023-05-02T12:54:46;95213.44;;;21.23;32.22
6423;BME280;3244;42.708;23.288;2023-05-02T12:57:23;95219.78;;;20.83;32.53
6423;BME280;3244;42.708;23.288;2023-05-02T12:59:51;95214.28;;;20.87;32.71
6423;BME280;3244;42.708;23.288;2023-05-02T13:02:18;95218.09;;;20.94;32.08
6423;BME280;3244;42.708;23.288;2023-05-02T13:04:45;95213.22;;;20.79;32.22
6423;BME280;3244;42.708;23.288;2023-05-02T13:07:12;95220.81;;;20.80;32.37
6423;BME280;3244;42.708;23.288;2023-05-02T13:09:40;95214.38;;;20.98;32.54
6423;BME280;3244;42.708;23.288;2023-05-02T13:12:06;95209.81;;;21.02;32.02
6423;BME280;3244;42.708;23.288;2023-05-02T13:14:33;95207.75;;;20.94;32.41
6423;BME280;3244;42.708;23.288;2023-05-02T13:17:00;95226.97;;;21.03;32.38
6423;BME280;3244;42.708;23.288;2023-05-02T13:19:26;95212.72;;;20.97;32.46
6423;BME280;3244;42.708;23.288;2023-05-02T13:21:55;95217.19;;;20.83;32.35